createdAt,value
2019-01-16T00:00:06.333Z,5.12
2019-01-16T00:01:05.696Z,5.12
2019-01-16T00:02:05.955Z,5.12
2019-01-16T00:03:05.230Z,5.12
2019-01-16T00:04:05.563Z,5.12
2019-01-16T00:05:05.610Z,5.12
2019-01-16T00:06:05.706Z,5.12
2019-01-16T00:07:05.367Z,5.12
2019-01-16T00:08:06.012Z,5.12
2019-01-16T00:09:05.206Z,5.12
2019-01-16T00:10:05.553Z,5.12
2019-01-16T00:11:05.522Z,5.12
2019-01-16T00:12:05.699Z,5.12
2019-01-16T00:13:05.456Z,5.12
2019-01-16T00:14:05.951Z,5.12
2019-01-16T00:15:05.287Z,5.19
2019-01-16T00:16:05.469Z,5.12
2019-01-16T00:17:05.707Z,5.12
2019-01-16T00:18:05.250Z,5.12
2019-01-16T00:19:05.204Z,5.12
2019-01-16T00:20:05.316Z,5.12
2019-01-16T00:21:05.367Z,5.12
2019-01-16T00:22:05.791Z,5.12
2019-01-16T00:23:05.320Z,5.12
2019-01-16T00:24:05.500Z,5.12
2019-01-16T00:25:05.608Z,5.12
2019-01-16T00:26:05.796Z,5.12
2019-01-16T00:27:05.127Z,5.12
2019-01-16T00:28:05.722Z,5.12
2019-01-16T00:29:05.150Z,5.19
2019-01-16T00:30:05.493Z,5.19
2019-01-16T00:31:05.614Z,5.19
2019-01-16T00:32:05.878Z,5.12
2019-01-16T00:33:05.434Z,5.19
2019-01-16T00:34:05.869Z,5.19
2019-01-16T00:35:05.541Z,5.19
2019-01-16T00:36:05.155Z,5.19
2019-01-16T00:37:05.136Z,5.19
2019-01-16T00:38:05.320Z,5.12
2019-01-16T00:39:05.307Z,5.19
2019-01-16T00:40:05.553Z,5.19
2019-01-16T00:41:05.219Z,5.19
2019-01-16T00:42:05.332Z,5.19
2019-01-16T00:43:05.276Z,5.19
2019-01-16T00:44:05.790Z,5.19
2019-01-16T00:45:05.549Z,5.19
2019-01-16T00:46:05.464Z,5.19
2019-01-16T00:47:05.952Z,5.19
2019-01-16T00:48:05.065Z,5.19
2019-01-16T00:49:05.151Z,5.19
2019-01-16T00:50:05.384Z,5.19
2019-01-16T00:51:06.089Z,5.19
2019-01-16T00:52:05.390Z,5.19
2019-01-16T00:53:06.029Z,5.19
2019-01-16T00:54:05.402Z,5.19
2019-01-16T00:55:05.280Z,5.19
2019-01-16T00:56:05.876Z,5.19
2019-01-16T00:57:05.837Z,5.19
2019-01-16T00:58:05.951Z,5.19
2019-01-16T00:59:05.464Z,5.19
2019-01-16T01:00:06.127Z,5.19
2019-01-16T01:01:05.131Z,5.12
2019-01-16T01:02:05.087Z,5.12
2019-01-16T01:03:05.250Z,5.19
2019-01-16T01:04:05.385Z,5.19
2019-01-16T01:05:06.002Z,5.19
2019-01-16T01:06:06.028Z,5.19
2019-01-16T01:07:05.428Z,5.19
2019-01-16T01:08:05.161Z,5.19
2019-01-16T01:09:05.244Z,5.19
2019-01-16T01:10:05.389Z,5.19
2019-01-16T01:11:05.390Z,5.19
2019-01-16T01:12:05.610Z,5.12
2019-01-16T01:13:05.845Z,5.19
2019-01-16T01:14:05.376Z,5.12
2019-01-16T01:15:05.605Z,5.12
2019-01-16T01:16:05.796Z,5.12
2019-01-16T01:17:05.400Z,5.19
2019-01-16T01:18:05.787Z,5.12
2019-01-16T01:19:05.136Z,5.12
2019-01-16T01:20:05.241Z,5.19
2019-01-16T01:21:05.111Z,5.19
2019-01-16T01:22:05.598Z,5.19
2019-01-16T01:23:05.750Z,5.19
2019-01-16T01:24:05.207Z,5.19
2019-01-16T01:25:05.523Z,5.19
2019-01-16T01:26:06.931Z,5.19
2019-01-16T01:27:05.273Z,5.19
2019-01-16T01:28:05.974Z,5.19
2019-01-16T01:29:05.118Z,5.19
2019-01-16T01:30:05.642Z,5.19
2019-01-16T01:31:05.036Z,5.12
2019-01-16T01:32:05.480Z,5.12
2019-01-16T01:33:05.128Z,5.12
2019-01-16T01:34:05.252Z,5.12
2019-01-16T01:35:05.384Z,5.12
2019-01-16T01:36:05.528Z,5.12
2019-01-16T01:37:05.687Z,5.12
2019-01-16T01:38:05.787Z,5.12
2019-01-16T01:39:05.547Z,5.12
2019-01-16T01:40:05.552Z,5.12
2019-01-16T01:41:06.080Z,5.12
2019-01-16T01:42:05.073Z,5.12
2019-01-16T01:43:05.037Z,5.12
2019-01-16T01:44:05.386Z,5.12
2019-01-16T01:45:05.852Z,5.12
2019-01-16T01:46:05.861Z,5.12
2019-01-16T01:47:05.438Z,5.12
2019-01-16T01:48:05.733Z,5.12
2019-01-16T01:49:05.061Z,5.19
2019-01-16T01:50:05.635Z,5.12
2019-01-16T01:51:05.780Z,5.12
2019-01-16T01:52:05.783Z,5.12
2019-01-16T01:53:05.361Z,5.12
2019-01-16T01:54:05.301Z,5.12
2019-01-16T01:55:05.527Z,5.12
2019-01-16T01:56:05.722Z,5.12
2019-01-16T01:57:05.293Z,5.12
2019-01-16T01:58:05.157Z,5.12
2019-01-16T01:59:05.152Z,5.12
2019-01-16T02:00:05.310Z,5.12
2019-01-16T02:01:05.361Z,5.12
2019-01-16T02:02:06.185Z,5.12
2019-01-16T02:03:06.023Z,5.12
2019-01-16T02:04:05.129Z,5.12
2019-01-16T02:05:05.518Z,5.12
2019-01-16T02:06:05.943Z,5.12
2019-01-16T02:07:05.530Z,5.12
2019-01-16T02:08:05.943Z,5.12
2019-01-16T02:09:04.959Z,5.12
2019-01-16T02:10:05.721Z,5.12
2019-01-16T02:11:05.759Z,5.12
2019-01-16T02:12:05.859Z,5.12
2019-01-16T02:13:05.126Z,5.12
2019-01-16T02:14:05.635Z,5.12
2019-01-16T02:15:05.135Z,5.12
2019-01-16T02:16:05.138Z,5.12
2019-01-16T02:17:05.390Z,5.12
2019-01-16T02:18:05.893Z,5.12
2019-01-16T02:19:05.035Z,5.12
2019-01-16T02:20:05.066Z,5.12
2019-01-16T02:21:05.684Z,5.12
2019-01-16T02:22:05.810Z,5.12
2019-01-16T02:23:05.688Z,5.12
2019-01-16T02:24:05.784Z,5.12
2019-01-16T02:25:05.223Z,5.12
2019-01-16T02:26:05.228Z,5.12
2019-01-16T02:27:05.689Z,5.12
2019-01-16T02:28:05.487Z,5.12
2019-01-16T02:29:05.473Z,5.12
2019-01-16T02:30:05.852Z,5.06
2019-01-16T02:31:05.136Z,5.06
2019-01-16T02:32:05.299Z,5.06
2019-01-16T02:33:05.653Z,5.12
2019-01-16T02:34:05.487Z,5.06
2019-01-16T02:35:05.701Z,5.06
2019-01-16T02:36:05.486Z,5.06
2019-01-16T02:37:06.025Z,5.06
2019-01-16T02:38:06.053Z,5.06
2019-01-16T02:39:05.949Z,5.12
2019-01-16T02:40:05.219Z,5.06
2019-01-16T02:41:06.606Z,5.06
2019-01-16T02:42:05.240Z,5.06
2019-01-16T02:43:05.295Z,5.06
2019-01-16T02:44:05.573Z,5.06
2019-01-16T02:45:05.471Z,5.06
2019-01-16T02:46:05.555Z,5.06
2019-01-16T02:47:05.196Z,5.06
2019-01-16T02:48:05.863Z,5.06
2019-01-16T02:49:05.938Z,5.06
2019-01-16T02:50:05.375Z,5.06
2019-01-16T02:51:05.519Z,5.06
2019-01-16T02:52:05.644Z,5.06
2019-01-16T02:53:05.140Z,5.06
2019-01-16T02:54:05.074Z,5.12
2019-01-16T02:55:05.451Z,5.12
2019-01-16T02:56:05.549Z,5.06
2019-01-16T02:57:05.608Z,5.06
2019-01-16T02:58:05.714Z,5.06
2019-01-16T02:59:05.148Z,5.06
2019-01-16T03:00:05.613Z,5.06
2019-01-16T03:01:05.925Z,5.06
2019-01-16T03:02:05.069Z,5.06
2019-01-16T03:03:05.145Z,5.12
2019-01-16T03:04:05.608Z,5.12
2019-01-16T03:05:05.441Z,5.06
2019-01-16T03:06:05.168Z,5.06
2019-01-16T03:07:05.107Z,5.06
2019-01-16T03:08:05.879Z,5.06
2019-01-16T03:09:05.843Z,5.06
2019-01-16T03:10:06.044Z,5.06
2019-01-16T03:11:06.001Z,5.06
2019-01-16T03:12:05.549Z,5.06
2019-01-16T03:13:05.548Z,5.06
2019-01-16T03:14:05.783Z,5.06
2019-01-16T03:15:05.693Z,5.06
2019-01-16T03:16:05.323Z,5.06
2019-01-16T03:17:05.312Z,5.06
2019-01-16T03:18:06.520Z,5.06
2019-01-16T03:19:05.945Z,5.06
2019-01-16T03:20:05.873Z,5.06
2019-01-16T03:21:06.016Z,5.06
2019-01-16T03:22:05.262Z,5.06
2019-01-16T03:23:05.121Z,5.00
2019-01-16T03:24:05.717Z,5.06
2019-01-16T03:25:05.228Z,5.00
2019-01-16T03:26:05.410Z,5.06
2019-01-16T03:27:05.198Z,5.06
2019-01-16T03:28:05.302Z,5.00
2019-01-16T03:29:05.786Z,5.06
2019-01-16T03:30:10.396Z,5.06
2019-01-16T03:31:05.223Z,5.06
2019-01-16T03:32:06.027Z,5.06
2019-01-16T03:33:05.689Z,5.06
2019-01-16T03:34:06.036Z,5.00
2019-01-16T03:35:05.392Z,5.06
2019-01-16T03:36:05.730Z,5.00
2019-01-16T03:37:05.678Z,5.00
2019-01-16T03:38:06.179Z,5.06
2019-01-16T03:39:05.675Z,5.06
2019-01-16T03:40:05.230Z,5.00
2019-01-16T03:41:05.849Z,5.00
2019-01-16T03:42:05.281Z,5.00
2019-01-16T03:43:05.522Z,5.00
2019-01-16T03:44:05.706Z,5.00
2019-01-16T03:45:05.283Z,5.00
2019-01-16T03:46:05.329Z,5.00
2019-01-16T03:47:05.378Z,5.00
2019-01-16T03:48:05.704Z,5.00
2019-01-16T03:49:12.846Z,5.00
2019-01-16T03:50:05.232Z,5.00
2019-01-16T03:51:05.444Z,5.00
2019-01-16T03:52:05.541Z,5.00
2019-01-16T03:53:05.833Z,5.00
2019-01-16T03:54:05.158Z,5.00
2019-01-16T03:55:05.309Z,5.00
2019-01-16T03:56:05.483Z,5.00
2019-01-16T03:57:05.932Z,5.00
2019-01-16T03:58:05.556Z,5.00
2019-01-16T03:59:05.544Z,5.00
2019-01-16T04:00:05.709Z,5.00
2019-01-16T04:01:05.766Z,5.00
2019-01-16T04:02:05.227Z,5.00
2019-01-16T04:03:05.760Z,5.00
2019-01-16T04:04:05.896Z,5.00
2019-01-16T04:05:05.943Z,5.00
2019-01-16T04:06:05.311Z,5.00
2019-01-16T04:07:05.648Z,5.00
2019-01-16T04:08:05.795Z,5.00
2019-01-16T04:09:05.847Z,4.94
2019-01-16T04:10:05.322Z,4.94
2019-01-16T04:11:05.400Z,4.94
2019-01-16T04:12:05.542Z,5.00
2019-01-16T04:13:05.210Z,5.00
2019-01-16T04:14:05.177Z,5.00
2019-01-16T04:15:05.844Z,4.94
2019-01-16T04:16:06.027Z,5.00
2019-01-16T04:17:05.520Z,4.94
2019-01-16T04:18:06.030Z,4.94
2019-01-16T04:19:05.547Z,4.94
2019-01-16T04:20:05.796Z,4.94
2019-01-16T04:21:05.841Z,4.94
2019-01-16T04:22:05.940Z,4.94
2019-01-16T04:23:05.219Z,4.94
2019-01-16T04:24:05.596Z,4.94
2019-01-16T04:25:05.768Z,4.94
2019-01-16T04:26:05.904Z,4.94
2019-01-16T04:27:06.106Z,4.94
2019-01-16T04:28:06.023Z,4.94
2019-01-16T04:29:05.537Z,4.94
2019-01-16T04:30:05.120Z,4.94
2019-01-16T04:31:05.375Z,4.94
2019-01-16T04:32:05.057Z,4.94
2019-01-16T04:33:05.515Z,4.94
2019-01-16T04:34:05.531Z,4.94
2019-01-16T04:35:05.774Z,4.94
2019-01-16T04:36:05.963Z,4.94
2019-01-16T04:37:05.933Z,4.94
2019-01-16T04:38:05.068Z,4.94
2019-01-16T04:39:05.622Z,4.94
2019-01-16T04:40:05.601Z,4.94
2019-01-16T04:41:05.837Z,4.94
2019-01-16T04:42:05.644Z,4.94
2019-01-16T04:43:05.534Z,4.94
2019-01-16T04:44:05.596Z,4.94
2019-01-16T04:45:05.776Z,4.94
2019-01-16T04:46:06.037Z,4.94
2019-01-16T04:47:05.393Z,4.94
2019-01-16T04:48:05.728Z,4.94
2019-01-16T04:49:05.676Z,4.94
2019-01-16T04:50:05.877Z,4.94
2019-01-16T04:51:05.220Z,4.88
2019-01-16T04:52:05.311Z,4.88
2019-01-16T04:53:05.198Z,4.88
2019-01-16T04:54:05.292Z,4.94
2019-01-16T04:55:05.469Z,4.94
2019-01-16T04:56:05.547Z,4.94
2019-01-16T04:57:05.925Z,4.94
2019-01-16T04:58:05.952Z,4.88
2019-01-16T04:59:05.556Z,4.88
2019-01-16T05:00:05.551Z,4.88
2019-01-16T05:01:05.620Z,4.88
2019-01-16T05:02:05.919Z,4.88
2019-01-16T05:03:05.859Z,4.88
2019-01-16T05:04:05.223Z,4.88
2019-01-16T05:05:05.194Z,4.88
2019-01-16T05:06:05.132Z,4.94
2019-01-16T05:07:05.608Z,4.88
2019-01-16T05:08:05.969Z,4.88
2019-01-16T05:09:05.948Z,4.88
2019-01-16T05:10:06.003Z,4.88
2019-01-16T05:11:05.344Z,4.88
2019-01-16T05:12:05.624Z,4.88
2019-01-16T05:13:05.127Z,4.88
2019-01-16T05:14:05.861Z,4.88
2019-01-16T05:15:05.301Z,4.88
2019-01-16T05:16:05.479Z,4.88
2019-01-16T05:17:05.616Z,4.88
2019-01-16T05:18:05.526Z,4.88
2019-01-16T05:19:05.870Z,4.88
2019-01-16T05:20:05.945Z,4.88
2019-01-16T05:21:05.301Z,4.88
2019-01-16T05:22:05.458Z,4.88
2019-01-16T05:23:05.149Z,4.88
2019-01-16T05:24:05.285Z,4.88
2019-01-16T05:25:05.696Z,4.88
2019-01-16T05:26:05.450Z,4.88
2019-01-16T05:27:05.640Z,4.88
2019-01-16T05:28:05.876Z,4.88
2019-01-16T05:29:05.922Z,4.88
2019-01-16T05:30:06.133Z,4.88
2019-01-16T05:31:05.512Z,4.88
2019-01-16T05:32:05.470Z,4.88
2019-01-16T05:33:05.639Z,4.88
2019-01-16T05:34:05.774Z,4.88
2019-01-16T05:35:05.909Z,4.88
2019-01-16T05:36:05.557Z,4.88
2019-01-16T05:37:05.527Z,4.88
2019-01-16T05:38:05.545Z,4.88
2019-01-16T05:39:05.842Z,4.88
2019-01-16T05:40:05.219Z,4.88
2019-01-16T05:41:05.432Z,4.88
2019-01-16T05:42:05.541Z,4.88
2019-01-16T05:43:05.933Z,4.88
2019-01-16T05:44:06.037Z,4.88
2019-01-16T05:45:05.062Z,4.94
2019-01-16T05:46:05.708Z,4.88
2019-01-16T05:47:05.710Z,4.88
2019-01-16T05:48:05.959Z,4.88
2019-01-16T05:49:05.842Z,4.88
2019-01-16T05:50:05.227Z,4.88
2019-01-16T05:51:05.870Z,4.88
2019-01-16T05:52:05.875Z,4.88
2019-01-16T05:53:05.767Z,4.88
2019-01-16T05:54:05.393Z,4.88
2019-01-16T05:55:05.861Z,4.88
2019-01-16T05:56:05.781Z,4.88
2019-01-16T05:57:05.924Z,4.88
2019-01-16T05:58:06.039Z,4.88
2019-01-16T05:59:05.036Z,4.88
2019-01-16T06:00:05.619Z,4.88
2019-01-16T06:01:05.939Z,4.88
2019-01-16T06:02:05.400Z,4.88
2019-01-16T06:03:05.872Z,4.88
2019-01-16T06:04:05.858Z,4.88
2019-01-16T06:05:05.286Z,4.88
2019-01-16T06:06:05.712Z,4.81
2019-01-16T06:07:05.300Z,4.81
2019-01-16T06:08:05.304Z,4.81
2019-01-16T06:09:05.756Z,4.81
2019-01-16T06:10:05.404Z,4.81
2019-01-16T06:11:05.293Z,4.81
2019-01-16T06:12:05.490Z,4.81
2019-01-16T06:13:05.387Z,4.88
2019-01-16T06:14:05.607Z,4.81
2019-01-16T06:15:06.048Z,4.81
2019-01-16T06:16:05.119Z,4.88
2019-01-16T06:17:05.535Z,4.88
2019-01-16T06:18:05.848Z,4.88
2019-01-16T06:19:06.122Z,4.88
2019-01-16T06:20:05.208Z,4.88
2019-01-16T06:21:05.224Z,4.88
2019-01-16T06:22:05.762Z,4.88
2019-01-16T06:23:05.962Z,4.88
2019-01-16T06:24:05.063Z,4.88
2019-01-16T06:25:05.636Z,4.88
2019-01-16T06:26:05.908Z,4.88
2019-01-16T06:27:05.564Z,4.88
2019-01-16T06:28:05.442Z,4.81
2019-01-16T06:29:05.221Z,4.81
2019-01-16T06:30:05.629Z,4.81
2019-01-16T06:31:06.679Z,4.81
2019-01-16T06:32:05.299Z,4.81
2019-01-16T06:33:05.227Z,4.81
2019-01-16T06:34:06.200Z,4.88
2019-01-16T06:35:05.466Z,4.81
2019-01-16T06:36:06.005Z,4.81
2019-01-16T06:37:05.930Z,4.81
2019-01-16T06:38:05.396Z,4.81
2019-01-16T06:39:05.218Z,4.88
2019-01-16T06:40:05.308Z,4.88
2019-01-16T06:41:05.648Z,4.88
2019-01-16T06:42:05.110Z,4.88
2019-01-16T06:43:05.343Z,4.88
2019-01-16T06:44:05.756Z,4.88
2019-01-16T06:45:05.462Z,4.81
2019-01-16T06:46:05.212Z,4.88
2019-01-16T06:47:05.397Z,4.81
2019-01-16T06:48:05.773Z,4.81
2019-01-16T06:49:05.897Z,4.81
2019-01-16T06:50:05.471Z,4.81
2019-01-16T06:51:05.288Z,4.81
2019-01-16T06:52:05.621Z,4.81
2019-01-16T06:53:05.545Z,4.81
2019-01-16T06:54:05.825Z,4.81
2019-01-16T06:55:05.853Z,4.81
2019-01-16T06:56:05.047Z,4.81
2019-01-16T06:57:05.722Z,4.81
2019-01-16T06:58:05.671Z,4.88
2019-01-16T06:59:05.730Z,4.88
2019-01-16T07:00:05.917Z,4.81
2019-01-16T07:01:05.548Z,4.88
2019-01-16T07:02:05.459Z,4.81
2019-01-16T07:03:05.313Z,4.81
2019-01-16T07:04:05.307Z,4.81
2019-01-16T07:05:05.501Z,4.81
2019-01-16T07:06:05.616Z,4.81
2019-01-16T07:07:05.706Z,4.81
2019-01-16T07:08:05.754Z,4.81
2019-01-16T07:09:05.310Z,4.81
2019-01-16T07:10:05.470Z,4.81
2019-01-16T07:11:05.810Z,4.81
2019-01-16T07:12:05.663Z,4.81
2019-01-16T07:13:05.934Z,4.88
2019-01-16T07:14:05.376Z,4.88
2019-01-16T07:15:05.385Z,4.81
2019-01-16T07:16:06.489Z,4.88
2019-01-16T07:17:05.536Z,4.88
2019-01-16T07:18:06.505Z,4.88
2019-01-16T07:19:05.866Z,4.88
2019-01-16T07:20:09.531Z,4.88
2019-01-16T07:21:05.299Z,4.88
2019-01-16T07:22:05.931Z,4.88
2019-01-16T07:23:05.944Z,4.88
2019-01-16T07:24:05.597Z,4.81
2019-01-16T07:25:05.628Z,4.88
2019-01-16T07:26:05.205Z,4.88
2019-01-16T07:27:05.522Z,4.88
2019-01-16T07:28:05.763Z,4.88
2019-01-16T07:29:05.131Z,4.88
2019-01-16T07:30:05.660Z,4.88
2019-01-16T07:31:05.937Z,4.88
2019-01-16T07:32:06.013Z,4.88
2019-01-16T07:33:05.209Z,4.88
2019-01-16T07:34:05.670Z,4.88
2019-01-16T07:35:05.522Z,4.88
2019-01-16T07:36:05.642Z,4.88
2019-01-16T07:37:05.202Z,4.88
2019-01-16T07:38:05.707Z,4.88
2019-01-16T07:39:05.454Z,4.88
2019-01-16T07:40:05.579Z,4.88
2019-01-16T07:41:05.624Z,4.88
2019-01-16T07:42:05.862Z,4.88
2019-01-16T07:43:05.361Z,4.88
2019-01-16T07:44:05.954Z,4.88
2019-01-16T07:45:06.010Z,4.88
2019-01-16T07:46:05.425Z,4.88
2019-01-16T07:47:05.365Z,4.88
2019-01-16T07:48:05.889Z,4.88
2019-01-16T07:49:05.806Z,4.88
2019-01-16T07:50:05.400Z,4.94
2019-01-16T07:51:05.763Z,4.94
2019-01-16T07:52:05.928Z,4.94
2019-01-16T07:53:05.438Z,4.94
2019-01-16T07:54:05.779Z,4.94
2019-01-16T07:55:05.250Z,4.94
2019-01-16T07:56:05.282Z,4.94
2019-01-16T07:57:05.632Z,4.94
2019-01-16T07:58:05.637Z,4.94
2019-01-16T07:59:06.023Z,4.94
2019-01-16T08:00:05.038Z,4.94
2019-01-16T08:01:05.381Z,4.94
2019-01-16T08:02:06.044Z,4.94
2019-01-16T08:03:05.842Z,4.94
2019-01-16T08:04:06.037Z,4.94
2019-01-16T08:05:05.455Z,4.94
2019-01-16T08:06:05.541Z,5.00
2019-01-16T08:07:06.005Z,5.00
2019-01-16T08:08:05.409Z,4.94
2019-01-16T08:09:05.376Z,5.00
2019-01-16T08:10:05.315Z,5.00
2019-01-16T08:11:05.294Z,4.94
2019-01-16T08:12:05.442Z,4.94
2019-01-16T08:13:05.708Z,5.00
2019-01-16T08:14:05.865Z,5.00
2019-01-16T08:15:05.224Z,5.06
2019-01-16T08:16:05.308Z,5.06
2019-01-16T08:17:05.966Z,5.00
2019-01-16T08:18:05.971Z,5.00
2019-01-16T08:19:05.939Z,5.00
2019-01-16T08:20:05.389Z,5.00
2019-01-16T08:21:05.555Z,5.00
2019-01-16T08:22:05.634Z,5.00
2019-01-16T08:23:05.675Z,5.00
2019-01-16T08:24:05.232Z,5.00
2019-01-16T08:25:05.375Z,5.00
2019-01-16T08:26:05.386Z,5.00
2019-01-16T08:27:05.554Z,5.00
2019-01-16T08:28:05.793Z,5.06
2019-01-16T08:29:05.199Z,5.00
2019-01-16T08:30:05.798Z,5.00
2019-01-16T08:31:05.947Z,5.06
2019-01-16T08:32:06.114Z,5.06
2019-01-16T08:33:05.351Z,5.06
2019-01-16T08:34:05.852Z,5.06
2019-01-16T08:35:05.937Z,5.06
2019-01-16T08:36:05.961Z,5.06
2019-01-16T08:37:05.534Z,5.06
2019-01-16T08:38:05.900Z,5.06
2019-01-16T08:39:06.067Z,5.06
2019-01-16T08:40:05.534Z,5.00
2019-01-16T08:41:05.473Z,5.06
2019-01-16T08:42:05.470Z,5.06
2019-01-16T08:43:05.234Z,5.06
2019-01-16T08:44:13.395Z,5.06
2019-01-16T08:45:05.550Z,5.06
2019-01-16T08:46:05.549Z,5.06
2019-01-16T08:47:05.215Z,5.06
2019-01-16T08:48:05.918Z,5.06
2019-01-16T08:49:05.365Z,5.06
2019-01-16T08:50:05.850Z,5.06
2019-01-16T08:51:06.016Z,5.06
2019-01-16T08:52:05.559Z,5.06
2019-01-16T08:53:05.612Z,5.06
2019-01-16T08:54:05.306Z,5.12
2019-01-16T08:55:05.758Z,5.06
2019-01-16T08:56:05.468Z,5.12
2019-01-16T08:57:05.722Z,5.12
2019-01-16T08:58:05.863Z,5.12
2019-01-16T08:59:05.957Z,5.12
2019-01-16T09:00:06.023Z,5.12
2019-01-16T09:01:05.679Z,5.12
2019-01-16T09:02:05.815Z,5.12
2019-01-16T09:03:05.867Z,5.12
2019-01-16T09:04:05.234Z,5.12
2019-01-16T09:05:05.801Z,5.12
2019-01-16T09:06:05.310Z,5.12
2019-01-16T09:07:05.375Z,5.12
2019-01-16T09:08:05.466Z,5.12
2019-01-16T09:09:05.948Z,5.12
2019-01-16T09:10:05.149Z,5.12
2019-01-16T09:11:05.596Z,5.19
2019-01-16T09:12:05.317Z,5.19
2019-01-16T09:13:05.791Z,5.19
2019-01-16T09:14:05.060Z,5.19
2019-01-16T09:15:05.771Z,5.19
2019-01-16T09:16:05.879Z,5.19
2019-01-16T09:17:05.283Z,5.19
2019-01-16T09:18:05.398Z,5.19
2019-01-16T09:19:05.771Z,5.25
2019-01-16T09:20:05.794Z,5.25
2019-01-16T09:21:05.670Z,5.25
2019-01-16T09:22:05.219Z,5.19
2019-01-16T09:23:05.874Z,5.19
2019-01-16T09:24:05.624Z,5.19
2019-01-16T09:25:06.018Z,5.25
2019-01-16T09:26:05.317Z,5.25
2019-01-16T09:27:05.849Z,5.25
2019-01-16T09:28:06.122Z,5.25
2019-01-16T09:29:05.949Z,5.25
2019-01-16T09:30:05.547Z,5.25
2019-01-16T09:31:06.648Z,5.25
2019-01-16T09:32:05.225Z,5.25
2019-01-16T09:33:05.307Z,5.25
2019-01-16T09:34:05.376Z,5.25
2019-01-16T09:35:05.672Z,5.25
2019-01-16T09:36:05.230Z,5.25
2019-01-16T09:37:05.397Z,5.31
2019-01-16T09:38:05.272Z,5.31
2019-01-16T09:39:05.368Z,5.31
2019-01-16T09:40:05.230Z,5.31
2019-01-16T09:41:05.618Z,5.31
2019-01-16T09:42:05.796Z,5.31
2019-01-16T09:43:05.795Z,5.31
2019-01-16T09:44:06.071Z,5.31
2019-01-16T09:45:05.117Z,5.31
2019-01-16T09:46:05.302Z,5.38
2019-01-16T09:47:05.704Z,5.38
2019-01-16T09:48:05.865Z,5.38
2019-01-16T09:49:06.127Z,5.38
2019-01-16T09:50:05.212Z,5.38
2019-01-16T09:51:05.546Z,5.38
2019-01-16T09:52:05.543Z,5.38
2019-01-16T09:53:05.528Z,5.38
2019-01-16T09:54:05.474Z,5.44
2019-01-16T09:55:05.949Z,5.44
2019-01-16T09:56:05.307Z,5.44
2019-01-16T09:57:05.356Z,5.44
2019-01-16T09:58:05.630Z,5.44
2019-01-16T09:59:05.690Z,5.44
2019-01-16T10:00:05.128Z,5.44
2019-01-16T10:01:05.431Z,5.44
2019-01-16T10:02:05.042Z,5.44
2019-01-16T10:03:05.284Z,5.44
2019-01-16T10:04:05.303Z,5.44
2019-01-16T10:05:05.679Z,5.44
2019-01-16T10:06:05.345Z,5.44
2019-01-16T10:07:05.734Z,5.44
2019-01-16T10:08:05.940Z,5.44
2019-01-16T10:09:05.450Z,5.44
2019-01-16T10:10:06.006Z,5.44
2019-01-16T10:11:05.306Z,5.44
2019-01-16T10:12:05.360Z,5.44
2019-01-16T10:13:05.451Z,5.50
2019-01-16T10:14:06.037Z,5.44
2019-01-16T10:15:05.926Z,5.50
2019-01-16T10:16:06.032Z,5.50
2019-01-16T10:17:06.039Z,5.50
2019-01-16T10:18:06.843Z,5.50
2019-01-16T10:19:05.374Z,5.50
2019-01-16T10:20:06.041Z,5.50
2019-01-16T10:21:05.367Z,5.50
2019-01-16T10:22:05.597Z,5.50
2019-01-16T10:23:05.697Z,5.50
2019-01-16T10:24:05.811Z,5.50
2019-01-16T10:25:05.791Z,5.50
2019-01-16T10:26:06.125Z,5.50
2019-01-16T10:27:06.027Z,5.50
2019-01-16T10:28:05.500Z,5.50
2019-01-16T10:29:05.552Z,5.50
2019-01-16T10:30:05.940Z,5.50
2019-01-16T10:31:05.290Z,5.50
2019-01-16T10:32:05.950Z,5.50
2019-01-16T10:33:05.916Z,5.50
2019-01-16T10:34:05.462Z,5.50
2019-01-16T10:35:05.859Z,5.50
2019-01-16T10:36:06.049Z,5.50
2019-01-16T10:37:05.136Z,5.50
2019-01-16T10:38:05.881Z,5.50
2019-01-16T10:39:05.862Z,5.50
2019-01-16T10:40:06.020Z,5.50
2019-01-16T10:41:06.107Z,5.50
2019-01-16T10:42:05.284Z,5.50
2019-01-16T10:43:05.473Z,5.50
2019-01-16T10:44:05.543Z,5.50
2019-01-16T10:45:05.961Z,5.50
2019-01-16T10:46:05.942Z,5.50
2019-01-16T10:47:05.280Z,5.50
2019-01-16T10:48:05.379Z,5.50
2019-01-16T10:49:05.932Z,5.50
2019-01-16T10:50:05.637Z,5.50
2019-01-16T10:51:05.146Z,5.50
2019-01-16T10:52:05.304Z,5.50
2019-01-16T10:53:05.788Z,5.50
2019-01-16T10:54:05.945Z,5.50
2019-01-16T10:55:06.005Z,5.50
2019-01-16T10:56:05.220Z,5.50
2019-01-16T10:57:05.850Z,5.56
2019-01-16T10:58:05.289Z,5.56
2019-01-16T10:59:05.605Z,5.56
2019-01-16T11:00:05.626Z,5.56
2019-01-16T11:01:05.537Z,5.56
2019-01-16T11:02:05.543Z,5.56
2019-01-16T11:03:05.532Z,5.56
2019-01-16T11:04:05.559Z,5.56
2019-01-16T11:05:06.101Z,5.56
2019-01-16T11:06:05.540Z,5.56
2019-01-16T11:07:05.125Z,5.56
2019-01-16T11:08:05.638Z,5.56
2019-01-16T11:09:05.382Z,5.62
2019-01-16T11:10:05.551Z,5.56
2019-01-16T11:11:06.675Z,5.56
2019-01-16T11:12:05.219Z,5.56
2019-01-16T11:13:05.455Z,5.56
2019-01-16T11:14:05.947Z,5.56
2019-01-16T11:15:05.288Z,5.56
2019-01-16T11:16:05.687Z,5.62
2019-01-16T11:17:06.020Z,5.56
2019-01-16T11:18:05.940Z,5.56
2019-01-16T11:19:06.091Z,5.56
2019-01-16T11:20:05.723Z,5.56
2019-01-16T11:21:10.905Z,5.56
2019-01-16T11:22:05.603Z,5.56
2019-01-16T11:23:05.857Z,5.56
2019-01-16T11:24:05.847Z,5.56
2019-01-16T11:25:05.198Z,5.56
2019-01-16T11:26:05.796Z,5.56
2019-01-16T11:27:06.189Z,5.56
2019-01-16T11:28:05.461Z,5.56
2019-01-16T11:29:05.908Z,5.56
2019-01-16T11:30:05.465Z,5.56
2019-01-16T11:31:06.002Z,5.56
2019-01-16T11:32:05.465Z,5.56
2019-01-16T11:33:05.448Z,5.56
2019-01-16T11:34:05.451Z,5.56
2019-01-16T11:35:05.798Z,5.56
2019-01-16T11:36:05.798Z,5.56
2019-01-16T11:37:05.759Z,5.56
2019-01-16T11:38:05.884Z,5.56
2019-01-16T11:39:05.764Z,5.50
2019-01-16T11:40:05.781Z,5.50
2019-01-16T11:41:05.707Z,5.50
2019-01-16T11:42:05.875Z,5.50
2019-01-16T11:43:05.769Z,5.50
2019-01-16T11:44:05.547Z,5.50
2019-01-16T11:45:05.838Z,5.50
2019-01-16T11:46:05.392Z,5.50
2019-01-16T11:47:05.213Z,5.50
2019-01-16T11:48:05.641Z,5.50
2019-01-16T11:49:05.356Z,5.50
2019-01-16T11:50:06.081Z,5.50
2019-01-16T11:51:05.837Z,5.50
2019-01-16T11:52:05.227Z,5.50
2019-01-16T11:53:05.594Z,5.50
2019-01-16T11:54:05.784Z,5.50
2019-01-16T11:55:05.305Z,5.50
2019-01-16T11:56:05.392Z,5.50
2019-01-16T11:57:05.454Z,5.50
2019-01-16T11:58:05.957Z,5.50
2019-01-16T11:59:05.923Z,5.50
2019-01-16T12:00:05.389Z,5.50
2019-01-16T12:01:05.929Z,5.50
2019-01-16T12:02:05.549Z,5.50
2019-01-16T12:03:05.688Z,5.50
2019-01-16T12:04:05.877Z,5.50
2019-01-16T12:05:05.754Z,5.50
2019-01-16T12:06:05.970Z,5.50
2019-01-16T12:07:05.849Z,5.50
2019-01-16T12:08:06.013Z,5.50
2019-01-16T12:09:05.593Z,5.50
2019-01-16T12:10:05.854Z,5.50
2019-01-16T12:11:05.891Z,5.50
2019-01-16T12:12:05.323Z,5.50
2019-01-16T12:13:05.202Z,5.50
2019-01-16T12:14:05.224Z,5.50
2019-01-16T12:15:05.693Z,5.50
2019-01-16T12:16:05.226Z,5.50
2019-01-16T12:17:05.721Z,5.50
2019-01-16T12:18:05.846Z,5.50
2019-01-16T12:19:05.385Z,5.50
2019-01-16T12:20:05.284Z,5.50
2019-01-16T12:21:05.626Z,5.50
2019-01-16T12:22:05.625Z,5.50
2019-01-16T12:23:05.480Z,5.50
2019-01-16T12:24:05.730Z,5.50
2019-01-16T12:25:05.616Z,5.50
2019-01-16T12:26:08.155Z,5.50
2019-01-16T12:27:05.943Z,5.50
2019-01-16T12:28:05.552Z,5.50
2019-01-16T12:29:05.459Z,5.50
2019-01-16T12:30:05.800Z,5.50
2019-01-16T12:31:05.694Z,5.50
2019-01-16T12:32:05.792Z,5.50
2019-01-16T12:33:05.444Z,5.50
2019-01-16T12:34:05.769Z,5.50
2019-01-16T12:35:05.951Z,5.50
2019-01-16T12:36:05.333Z,5.50
2019-01-16T12:37:05.544Z,5.50
2019-01-16T12:38:05.570Z,5.50
2019-01-16T12:39:05.547Z,5.50
2019-01-16T12:40:06.462Z,5.50
2019-01-16T12:41:05.996Z,5.50
2019-01-16T12:42:05.319Z,5.50
2019-01-16T12:43:05.852Z,5.50
2019-01-16T12:44:05.982Z,5.50
2019-01-16T12:45:06.016Z,5.50
2019-01-16T12:46:06.038Z,5.44
2019-01-16T12:47:05.388Z,5.44
2019-01-16T12:48:05.464Z,5.44
2019-01-16T12:49:06.103Z,5.50
2019-01-16T12:50:05.711Z,5.50
2019-01-16T12:51:05.621Z,5.50
2019-01-16T12:52:05.367Z,5.50
2019-01-16T12:53:05.607Z,5.50
2019-01-16T12:54:05.714Z,5.50
2019-01-16T12:55:05.547Z,5.50
2019-01-16T12:56:05.623Z,5.44
2019-01-16T12:57:05.369Z,5.50
2019-01-16T12:58:13.191Z,5.50
2019-01-16T12:59:05.442Z,5.50
2019-01-16T13:00:05.702Z,5.50
2019-01-16T13:01:05.302Z,5.50
2019-01-16T13:02:05.527Z,5.50
2019-01-16T13:03:05.760Z,5.50
2019-01-16T13:04:05.872Z,5.50
2019-01-16T13:05:05.767Z,5.50
2019-01-16T13:06:05.452Z,5.50
2019-01-16T13:07:05.601Z,5.56
2019-01-16T13:08:05.235Z,5.56
2019-01-16T13:09:05.284Z,5.56
2019-01-16T13:10:05.298Z,5.56
2019-01-16T13:11:05.867Z,5.56
2019-01-16T13:12:05.143Z,5.56
2019-01-16T13:13:05.859Z,5.56
2019-01-16T13:14:05.865Z,5.56
2019-01-16T13:15:06.013Z,5.56
2019-01-16T13:16:05.946Z,5.56
2019-01-16T13:17:05.524Z,5.56
2019-01-16T13:18:05.236Z,5.56